Time;durP1;ratioP1;P1;durP2;ratioP2;P2;SDS_P1;SDS_P2;PMS_P1;PMS_P2;Temp;Humidity;BMP_temperature;BMP_pressure;BME280_temperature;BME280_humidity;BME280_pressure;Samples;Min_cycle;Max_cycle;Signal;HPM_P1;HPM_P2
2021/07/23 00:01:49;;;;;;;6.18;0.98;;;;;;;17.52;100.00;100394.72;5031579;28;20056;-70
2021/07/23 00:04:52;;;;;;;9.15;1.50;;;;;;;17.45;100.00;100390.31;5032131;28;20056;-71
2021/07/23 00:07:56;;;;;;;5.05;0.90;;;;;;;17.42;100.00;100384.94;5031547;28;20057;-71
2021/07/23 00:10:59;;;;;;;3.83;1.65;;;;;;;17.34;100.00;100390.31;5032466;28;20053;-71
2021/07/23 00:14:03;;;;;;;5.38;1.23;;;;;;;17.25;100.00;100376.47;5035709;28;20053;-71
2021/07/23 00:17:06;;;;;;;4.97;1.30;;;;;;;17.19;100.00;100389.00;5035754;28;20052;-70
2021/07/23 00:20:10;;;;;;;8.23;1.50;;;;;;;17.12;100.00;100389.50;5035870;28;20052;-70
2021/07/23 00:23:14;;;;;;;5.95;1.40;;;;;;;17.01;100.00;100386.66;5035427;28;20398;-70
2021/07/23 00:26:21;;;;;;;4.38;1.25;;;;;;;16.95;100.00;100380.25;5034968;28;20056;-71
2021/07/23 00:29:24;;;;;;;5.95;1.20;;;;;;;16.87;100.00;100384.81;5034947;28;20072;-71
2021/07/23 00:32:28;;;;;;;11.18;2.08;;;;;;;16.82;100.00;100382.75;5035023;28;20048;-70
2021/07/23 00:35:31;;;;;;;1.88;1.00;;;;;;;16.75;100.00;100378.38;5035087;28;20422;-71
2021/07/23 00:38:35;;;;;;;10.13;1.75;;;;;;;16.67;100.00;100375.25;5034925;28;20045;-70
2021/07/23 00:41:38;;;;;;;2.63;1.42;;;;;;;16.62;100.00;100378.84;5035237;28;20050;-70
2021/07/23 00:44:42;;;;;;;9.35;2.10;;;;;;;16.56;100.00;100377.28;5034938;28;20445;-70
2021/07/23 00:47:49;;;;;;;2.40;0.90;;;;;;;16.48;100.00;100374.13;5034929;28;20113;-70
2021/07/23 00:50:53;;;;;;;5.90;1.52;;;;;;;16.43;100.00;100365.69;5035063;28;20049;-70
2021/07/23 00:53:57;;;;;;;7.18;2.03;;;;;;;16.38;100.00;100369.22;5034976;28;20068;-70
2021/07/23 00:57:01;;;;;;;11.60;1.73;;;;;;;16.37;100.00;100371.25;5034870;28;20056;-70
2021/07/23 01:00:05;;;;;;;3.25;1.08;;;;;;;16.31;100.00;100372.50;5034582;28;20042;-72
2021/07/23 01:03:08;;;;;;;3.22;1.33;;;;;;;16.26;100.00;100371.22;5034393;28;20064;-69
2021/07/23 01:06:12;;;;;;;5.05;1.02;;;;;;;16.18;100.00;100370.13;5034425;28;20048;-69
2021/07/23 01:09:16;;;;;;;13.73;2.55;;;;;;;16.10;100.00;100379.53;5035020;28;20096;-70
2021/07/23 01:12:20;;;;;;;3.10;1.15;;;;;;;16.04;100.00;100375.91;5034434;28;20045;-69
2021/07/23 01:15:23;;;;;;;5.13;1.98;;;;;;;16.01;100.00;100372.06;5034639;28;20068;-69
2021/07/23 01:18:27;;;;;;;3.10;1.33;;;;;;;15.95;100.00;100360.03;5034617;28;20394;-70
2021/07/23 01:21:31;;;;;;;8.05;1.77;;;;;;;15.88;100.00;100357.66;5034647;28;20040;-70
2021/07/23 01:24:36;;;;;;;7.35;1.95;;;;;;;15.84;100.00;100357.13;5034467;28;20053;-69
2021/07/23 01:27:52;;;;;;;4.45;1.80;;;;;;;15.79;100.00;100357.84;5034009;28;20053;-69
2021/07/23 01:30:58;;;;;;;10.27;1.50;;;;;;;15.74;100.00;100355.78;5034294;28;20049;-70
2021/07/23 01:34:02;;;;;;;3.67;1.88;;;;;;;15.69;100.00;100350.91;5033211;28;20411;-70
2021/07/23 01:37:06;;;;;;;7.13;1.52;;;;;;;15.65;100.00;100350.34;5034051;28;20052;-70
2021/07/23 01:40:10;;;;;;;5.32;1.52;;;;;;;15.63;100.00;100345.25;5034072;28;20506;-70
2021/07/23 01:43:15;;;;;;;4.55;1.23;;;;;;;15.59;100.00;100343.94;5034203;28;20068;-70
2021/07/23 01:46:18;;;;;;;10.20;3.00;;;;;;;15.58;100.00;100348.00;5033956;28;20489;-70
2021/07/23 01:49:22;;;;;;;6.65;2.20;;;;;;;15.54;100.00;100347.44;5033854;28;20057;-70
2021/07/23 01:52:26;;;;;;;8.93;2.35;;;;;;;15.51;100.00;100345.63;5033878;28;20057;-70
2021/07/23 01:55:29;;;;;;;7.30;2.15;;;;;;;15.48;100.00;100343.84;5032986;28;20053;-71
2021/07/23 01:58:34;;;;;;;7.10;1.20;;;;;;;15.45;100.00;100337.19;5033702;28;20049;-70
2021/07/23 02:01:38;;;;;;;10.77;2.33;;;;;;;15.43;100.00;100344.50;5033337;28;20513;-70
2021/07/23 02:04:41;;;;;;;3.95;2.20;;;;;;;15.42;100.00;100337.38;5033592;28;20045;-71
2021/07/23 02:07:44;;;;;;;9.82;2.08;;;;;;;15.37;100.00;100340.91;5033434;28;20056;-70
2021/07/23 02:10:48;;;;;;;7.13;2.15;;;;;;;15.35;100.00;100337.81;5033506;28;20497;-70
2021/07/23 02:13:52;;;;;;;15.57;2.45;;;;;;;15.36;100.00;100339.34;5033257;28;20048;-70
2021/07/23 02:16:58;;;;;;;6.10;2.65;;;;;;;15.32;100.00;100330.38;5033148;28;20637;-69
2021/07/23 02:20:03;;;;;;;8.10;2.05;;;;;;;15.32;100.00;100331.16;5033087;28;20116;-70
2021/07/23 02:23:06;;;;;;;8.52;1.92;;;;;;;15.35;100.00;100329.41;5032929;28;20052;-70
2021/07/23 02:26:19;;;;;;;12.02;2.08;;;;;;;15.38;100.00;100325.59;5032911;28;20101;-70
2021/07/23 02:29:23;;;;;;;10.65;1.98;;;;;;;15.37;100.00;100315.63;5033126;28;20045;-70
2021/07/23 02:32:27;;;;;;;6.70;2.65;;;;;;;15.38;100.00;100319.97;5033028;28;20049;-70
2021/07/23 02:35:30;;;;;;;8.02;2.35;;;;;;;15.37;100.00;100326.88;5032738;28;20394;-70
2021/07/23 02:38:34;;;;;;;6.20;1.48;;;;;;;15.33;100.00;100312.28;5032480;28;20064;-70
2021/07/23 02:41:37;;;;;;;5.65;1.08;;;;;;;15.30;100.00;100313.28;5032725;28;20056;-70
2021/07/23 02:44:41;;;;;;;6.30;1.52;;;;;;;15.26;100.00;100318.34;5032787;28;20056;-70
2021/07/23 02:47:45;;;;;;;11.63;2.58;;;;;;;15.17;100.00;100314.44;5032954;28;20394;-70
2021/07/23 02:50:49;;;;;;;11.05;2.63;;;;;;;15.15;100.00;100314.19;5032649;28;20382;-70
2021/07/23 02:53:52;;;;;;;11.80;2.58;;;;;;;15.14;100.00;100315.44;5032603;28;20049;-70
2021/07/23 02:56:55;;;;;;;7.88;1.85;;;;;;;15.14;100.00;100311.84;5032718;28;20053;-70
2021/07/23 03:00:00;;;;;;;9.70;2.38;;;;;;;15.13;100.00;100302.69;5032269;28;20060;-70
2021/07/23 03:03:04;;;;;;;12.70;2.80;;;;;;;15.10;100.00;100298.06;5032598;28;20052;-70
2021/07/23 03:06:08;;;;;;;17.55;2.00;;;;;;;15.11;100.00;100299.59;5032831;28;20054;-70
2021/07/23 03:09:11;;;;;;;13.27;2.88;;;;;;;15.07;100.00;100289.88;5032464;28;20042;-70
2021/07/23 03:12:14;;;;;;;14.52;3.00;;;;;;;15.08;100.00;100291.41;5032374;28;20041;-70
2021/07/23 03:15:18;;;;;;;9.90;3.00;;;;;;;15.07;100.00;100295.47;5032420;28;20563;-70
2021/07/23 03:18:21;;;;;;;11.25;2.45;;;;;;;15.04;100.00;100280.41;5031996;28;20064;-71
2021/07/23 03:21:24;;;;;;;13.50;2.72;;;;;;;15.03;100.00;100287.28;5032540;28;20041;-70
2021/07/23 03:24:28;;;;;;;11.23;3.65;;;;;;;15.02;100.00;100288.56;5031400;28;20049;-70
2021/07/23 03:27:31;;;;;;;13.77;2.55;;;;;;;14.94;100.00;100284.63;5031936;28;20050;-70
2021/07/23 03:30:35;;;;;;;6.03;2.08;;;;;;;14.92;100.00;100283.59;5031860;28;20049;-70
2021/07/23 03:33:39;;;;;;;6.13;2.38;;;;;;;14.89;100.00;100285.34;5031887;28;20052;-70
2021/07/23 03:36:43;;;;;;;16.08;4.22;;;;;;;14.85;100.00;100284.81;5032038;28;20048;-70
2021/07/23 03:39:46;;;;;;;14.02;3.38;;;;;;;14.81;100.00;100283.50;5032044;28;20077;-70
2021/07/23 03:42:50;;;;;;;9.43;2.90;;;;;;;14.77;100.00;100283.69;5032046;28;20053;-70
2021/07/23 03:45:54;;;;;;;13.25;3.50;;;;;;;14.72;100.00;100281.63;5035906;28;20100;-70
2021/07/23 03:48:57;;;;;;;8.50;3.33;;;;;;;14.69;100.00;100293.81;5038848;28;20049;-70
2021/07/23 03:52:01;;;;;;;10.75;3.22;;;;;;;14.66;100.00;100277.22;5038800;28;20060;-70
2021/07/23 03:55:05;;;;;;;12.02;2.90;;;;;;;14.59;100.00;100278.41;5038425;28;20482;-70
2021/07/23 03:58:09;;;;;;;9.65;3.10;;;;;;;14.61;100.00;100280.72;5038391;28;20045;-70
2021/07/23 04:01:12;;;;;;;11.43;3.00;;;;;;;14.63;100.00;100289.41;5038387;28;20108;-70
2021/07/23 04:04:16;;;;;;;25.40;4.45;;;;;;;14.64;100.00;100283.28;5038318;28;20049;-71
2021/07/23 04:07:19;;;;;;;10.60;4.15;;;;;;;14.67;100.00;100278.75;5038451;28;20037;-70
2021/07/23 04:10:24;;;;;;;14.30;3.65;;;;;;;14.71;100.00;100280.06;5038456;28;20382;-70
2021/07/23 04:13:28;;;;;;;16.98;3.17;;;;;;;14.74;100.00;100275.50;5037741;28;20057;-70
2021/07/23 04:16:31;;;;;;;22.05;3.80;;;;;;;14.78;100.00;100276.06;5038018;28;20378;-71
2021/07/23 04:19:35;;;;;;;17.17;5.28;;;;;;;14.77;100.00;100280.88;5038312;28;20486;-70
2021/07/23 04:22:38;;;;;;;15.57;3.95;;;;;;;14.74;100.00;100284.69;5037926;28;20382;-71
2021/07/23 04:25:42;;;;;;;20.02;3.83;;;;;;;14.76;100.00;100281.38;5038295;28;20045;-71
2021/07/23 04:28:45;;;;;;;15.10;4.53;;;;;;;14.70;100.00;100272.94;5038422;28;20053;-71
2021/07/23 04:31:49;;;;;;;13.85;3.78;;;;;;;14.63;100.00;100266.97;5038059;28;20041;-71
2021/07/23 04:34:52;;;;;;;12.43;3.22;;;;;;;14.65;100.00;100270.84;5036076;28;20037;-71
2021/07/23 04:37:55;;;;;;;15.52;4.05;;;;;;;14.65;100.00;100267.25;5034128;28;20049;-71
2021/07/23 04:40:59;;;;;;;15.90;3.20;;;;;;;14.64;100.00;100262.94;5018375;28;20050;-71
2021/07/23 04:44:02;;;;;;;9.57;3.25;;;;;;;14.71;100.00;100268.84;5018201;28;20046;-72
2021/07/23 04:47:05;;;;;;;13.07;4.03;;;;;;;14.74;100.00;100262.28;5023768;28;20060;-71
2021/07/23 04:50:09;;;;;;;24.00;4.13;;;;;;;14.77;100.00;100269.66;5021414;28;20050;-71
2021/07/23 04:53:13;;;;;;;13.23;2.92;;;;;;;14.81;100.00;100261.81;5038193;28;20366;-72
2021/07/23 04:56:17;;;;;;;9.55;2.45;;;;;;;14.85;100.00;100268.00;5037460;28;20045;-72
2021/07/23 04:59:20;;;;;;;9.98;3.03;;;;;;;14.89;100.00;100271.34;5032363;28;20068;-71
2021/07/23 05:02:24;;;;;;;5.22;2.78;;;;;;;14.98;100.00;100276.00;5025013;28;20540;-71
2021/07/23 05:05:30;;;;;;;6.15;2.33;;;;;;;15.03;100.00;100267.63;5015100;28;20061;-71
2021/07/23 05:08:37;;;;;;;13.50;3.67;;;;;;;15.12;100.00;100275.88;5014705;28;20065;-71
2021/07/23 05:11:42;;;;;;;15.52;3.05;;;;;;;15.23;100.00;100268.81;5014799;28;20042;-71
2021/07/23 05:14:45;;;;;;;19.52;3.05;;;;;;;15.30;100.00;100285.22;5034438;28;20046;-71
2021/07/23 05:17:48;;;;;;;16.30;3.35;;;;;;;15.39;100.00;100276.63;5028864;28;20042;-70
2021/07/23 05:20:52;;;;;;;9.57;2.28;;;;;;;15.48;100.00;100268.81;5029063;28;20042;-71
2021/07/23 05:23:55;;;;;;;14.95;2.63;;;;;;;15.58;100.00;100272.97;5022742;28;20684;-71
2021/07/23 05:26:59;;;;;;;11.10;2.83;;;;;;;15.69;100.00;100261.03;5014698;28;20049;-71
2021/07/23 05:30:04;;;;;;;10.45;2.80;;;;;;;15.81;100.00;100273.88;5014632;28;20046;-71
2021/07/23 05:33:08;;;;;;;10.32;2.50;;;;;;;15.92;100.00;100269.09;5017461;28;20050;-71
2021/07/23 05:36:11;;;;;;;9.05;2.55;;;;;;;16.03;100.00;100267.59;5017322;28;20506;-71
2021/07/23 05:39:14;;;;;;;16.13;2.95;;;;;;;16.15;100.00;100274.84;5014105;28;20064;-71
2021/07/23 05:42:17;;;;;;;11.10;2.55;;;;;;;16.24;100.00;100269.75;5024251;28;20402;-71
2021/07/23 05:45:21;;;;;;;16.13;3.22;;;;;;;16.30;100.00;100264.16;5014119;28;20554;-70
2021/07/23 05:48:24;;;;;;;17.35;2.80;;;;;;;16.35;100.00;100275.41;5014129;28;20038;-70
2021/07/23 05:51:28;;;;;;;10.48;2.88;;;;;;;16.44;100.00;100274.44;5014060;28;20049;-70
2021/07/23 05:54:31;;;;;;;15.68;2.55;;;;;;;16.55;100.00;100266.06;5014059;28;20038;-70
2021/07/23 05:57:35;;;;;;;8.80;1.90;;;;;;;16.66;100.00;100266.88;5013397;28;20050;-70
2021/07/23 06:00:38;;;;;;;13.60;2.70;;;;;;;16.73;100.00;100257.16;5022288;28;20113;-71
2021/07/23 06:03:42;;;;;;;7.40;2.97;;;;;;;16.82;100.00;100262.56;5013935;28;20486;-71
2021/07/23 06:06:45;;;;;;;11.38;2.42;;;;;;;16.92;100.00;100257.44;5013694;28;20073;-71
2021/07/23 06:09:49;;;;;;;6.78;1.30;;;;;;;16.88;100.00;100263.34;5012415;28;20050;-71
2021/07/23 06:12:52;;;;;;;7.35;1.55;;;;;;;16.86;100.00;100265.13;5019271;28;20061;-71
2021/07/23 06:15:56;;;;;;;5.18;2.17;;;;;;;16.84;100.00;100262.03;5016724;28;20053;-72
2021/07/23 06:18:59;;;;;;;6.60;1.80;;;;;;;16.78;100.00;100256.41;5013456;28;20076;-72
2021/07/23 06:22:04;;;;;;;6.30;1.38;;;;;;;16.75;100.00;100253.84;5013254;28;20545;-71
2021/07/23 06:25:09;;;;;;;8.52;2.08;;;;;;;16.66;100.00;100252.03;5013064;28;20093;-71
2021/07/23 06:28:12;;;;;;;8.90;1.67;;;;;;;16.87;100.00;100256.16;5013599;28;20510;-71
2021/07/23 06:31:16;;;;;;;5.50;1.23;;;;;;;16.95;100.00;100251.59;5013553;28;20060;-71
2021/07/23 06:34:19;;;;;;;6.47;1.60;;;;;;;16.97;100.00;100253.88;5013012;28;20375;-71
2021/07/23 06:37:23;;;;;;;5.25;2.20;;;;;;;17.08;100.00;100256.72;5013388;28;20073;-71
2021/07/23 06:40:26;;;;;;;8.20;1.88;;;;;;;17.13;100.00;100253.88;5013332;28;20053;-71
2021/07/23 06:43:30;;;;;;;5.30;1.38;;;;;;;17.26;100.00;100254.16;5013393;28;20069;-71
2021/07/23 06:46:33;;;;;;;3.40;1.35;;;;;;;17.40;100.00;100255.16;5013487;28;20053;-71
2021/07/23 06:49:37;;;;;;;6.88;2.10;;;;;;;17.47;100.00;100254.66;5012667;28;20052;-72
2021/07/23 06:52:40;;;;;;;6.78;1.33;;;;;;;17.62;100.00;100252.38;5012834;28;20053;-72
2021/07/23 06:55:44;;;;;;;8.95;2.10;;;;;;;17.81;100.00;100246.94;5012713;28;20497;-72
2021/07/23 06:58:47;;;;;;;6.65;1.50;;;;;;;17.95;100.00;100248.72;5012644;28;20056;-73
2021/07/23 07:01:51;;;;;;;5.75;2.03;;;;;;;18.04;100.00;100240.72;5012579;28;20057;-72
2021/07/23 07:04:55;;;;;;;5.70;1.83;;;;;;;18.19;100.00;100244.00;5023702;28;20061;-73
2021/07/23 07:07:59;;;;;;;7.72;1.38;;;;;;;18.35;100.00;100241.63;5012957;28;20406;-72
2021/07/23 07:11:02;;;;;;;5.88;2.15;;;;;;;18.43;100.00;100246.19;5012725;28;20045;-72
2021/07/23 07:14:06;;;;;;;9.02;1.20;;;;;;;18.45;100.00;100238.00;5030379;28;20048;-72
2021/07/23 07:17:10;;;;;;;4.88;1.30;;;;;;;18.48;100.00;100241.84;5037877;28;20046;-72
2021/07/23 07:20:16;;;;;;;4.75;0.90;;;;;;;18.44;100.00;100235.69;5049424;28;20059;-71
2021/07/23 07:23:20;;;;;;;4.30;1.45;;;;;;;18.44;100.00;100235.69;5026595;28;20056;-72
2021/07/23 07:26:23;;;;;;;8.93;1.27;;;;;;;18.50;100.00;100228.75;5032383;28;20056;-71
2021/07/23 07:29:27;;;;;;;10.55;1.35;;;;;;;18.67;100.00;100223.00;5029359;28;20049;-70
2021/07/23 07:32:30;;;;;;;6.78;1.80;;;;;;;18.87;100.00;100222.63;5020868;28;20041;-72
2021/07/23 07:35:33;;;;;;;2.15;0.95;;;;;;;18.92;100.00;100224.63;5012444;28;20156;-71
2021/07/23 07:38:37;;;;;;;7.15;1.73;;;;;;;18.93;100.00;100209.22;5025918;28;20056;-72
2021/07/23 07:41:40;;;;;;;10.80;1.63;;;;;;;18.87;100.00;100211.31;5031619;28;20057;-72
2021/07/23 07:44:46;;;;;;;8.43;1.38;;;;;;;18.86;100.00;100215.47;5031750;28;20050;-72
2021/07/23 07:47:50;;;;;;;5.07;1.58;;;;;;;18.80;100.00;100212.66;5031765;28;20072;-73
2021/07/23 07:50:53;;;;;;;9.23;2.58;;;;;;;18.85;100.00;100205.44;5032313;28;20056;-73
2021/07/23 07:53:57;;;;;;;9.20;1.63;;;;;;;18.99;100.00;100207.16;5032394;28;20397;-72
2021/07/23 07:57:09;;;;;;;7.72;1.00;;;;;;;19.07;100.00;100205.28;5031890;28;20069;-72
2021/07/23 08:00:13;;;;;;;8.50;2.38;;;;;;;19.11;100.00;100202.94;5031516;28;20068;-72
2021/07/23 08:03:17;;;;;;;9.18;1.75;;;;;;;19.19;100.00;100203.88;5031819;28;20057;-73
2021/07/23 08:06:53;;;;;;;8.18;2.22;;;;;;;19.23;100.00;100204.34;5031703;28;20068;-72
2021/07/23 08:09:53;;;;;;;12.65;1.80;;;;;;;19.30;100.00;100197.34;5031893;28;20069;-72
2021/07/23 08:12:56;;;;;;;4.55;1.83;;;;;;;19.40;100.00;100196.53;5031763;28;20049;-72
2021/07/23 08:16:00;;;;;;;8.40;2.67;;;;;;;19.50;100.00;100199.78;5012556;28;20057;-72
2021/07/23 08:19:03;;;;;;;10.98;2.60;;;;;;;19.61;100.00;100196.84;5020178;28;20139;-72
2021/07/23 08:22:08;;;;;;;9.48;2.80;;;;;;;19.78;100.00;100183.28;5011470;28;20046;-72
2021/07/23 08:25:11;;;;;;;11.95;3.25;;;;;;;19.97;100.00;100188.97;5012011;28;20049;-73
2021/07/23 08:28:16;;;;;;;12.07;3.20;;;;;;;20.17;100.00;100185.63;5020029;28;20041;-72
2021/07/23 08:31:20;;;;;;;11.93;3.25;;;;;;;20.33;100.00;100179.78;5042012;28;20049;-73
2021/07/23 08:34:23;;;;;;;9.10;2.97;;;;;;;20.48;100.00;100193.47;5035221;28;20049;-73
2021/07/23 08:37:26;;;;;;;12.18;3.22;;;;;;;20.57;100.00;100190.25;5035274;28;20049;-73
2021/07/23 08:40:31;;;;;;;9.45;2.35;;;;;;;20.56;100.00;100191.53;5035096;28;20049;-73
2021/07/23 08:43:35;;;;;;;9.48;3.40;;;;;;;20.60;100.00;100186.34;5035305;28;20099;-72
2021/07/23 08:46:38;;;;;;;6.72;1.65;;;;;;;20.74;100.00;100187.94;5035014;28;20052;-73
2021/07/23 08:49:41;;;;;;;10.98;1.85;;;;;;;21.00;100.00;100190.88;5034944;28;20056;-73
2021/07/23 08:52:46;;;;;;;12.43;2.50;;;;;;;21.17;100.00;100178.50;5035351;28;20037;-73
2021/07/23 08:55:50;;;;;;;8.32;1.90;;;;;;;21.22;100.00;100177.66;5035183;28;20049;-73
2021/07/23 08:58:53;;;;;;;5.03;2.03;;;;;;;21.28;100.00;100178.31;5035021;28;20394;-72
2021/07/23 09:02:01;;;;;;;9.48;2.42;;;;;;;21.19;100.00;100190.06;5034793;28;20521;-73
2021/07/23 09:05:13;;;;;;;7.55;2.75;;;;;;;21.19;100.00;100173.84;5034796;28;20057;-72
2021/07/23 09:08:18;;;;;;;4.18;1.63;;;;;;;21.37;100.00;100172.22;5034793;28;20076;-73
2021/07/23 09:11:27;;;;;;;7.65;2.22;;;;;;;21.60;100.00;100173.34;5034754;28;20055;-73
2021/07/23 09:14:31;;;;;;;7.78;2.42;;;;;;;21.81;100.00;100172.13;5034409;28;20045;-73
2021/07/23 09:17:42;;;;;;;5.40;1.80;;;;;;;21.86;100.00;100170.53;5035696;28;20501;-73
2021/07/23 09:20:56;;;;;;;10.40;2.40;;;;;;;21.85;100.00;100164.09;5036026;28;20052;-73
2021/07/23 09:24:00;;;;;;;4.90;1.13;;;;;;;21.76;100.00;100158.09;5034089;28;20045;-72
2021/07/23 09:27:03;;;;;;;4.57;1.45;;;;;;;21.80;100.00;100159.28;5034244;28;20053;-72
2021/07/23 09:30:09;;;;;;;13.27;1.33;;;;;;;21.96;100.00;100154.59;5034717;28;20048;-72
2021/07/23 09:33:13;;;;;;;3.50;1.13;;;;;;;21.96;100.00;100153.84;5034361;28;20498;-72
2021/07/23 09:36:16;;;;;;;7.35;1.67;;;;;;;22.00;100.00;100155.03;5034249;28;20076;-73
2021/07/23 09:39:20;;;;;;;7.72;1.58;;;;;;;22.09;100.00;100146.06;5033938;28;20057;-73
2021/07/23 09:42:24;;;;;;;5.47;1.60;;;;;;;22.05;100.00;100145.63;5034117;28;20060;-72
2021/07/23 09:45:33;;;;;;;8.43;1.52;;;;;;;21.84;100.00;100147.63;5033984;28;20052;-73
2021/07/23 09:48:36;;;;;;;7.43;1.45;;;;;;;21.82;100.00;100151.03;5033789;28;20481;-72
2021/07/23 09:51:41;;;;;;;5.30;1.45;;;;;;;21.83;100.00;100140.41;5033763;28;20064;-73
2021/07/23 09:54:44;;;;;;;4.82;0.73;;;;;;;21.77;100.00;100145.41;5033062;28;20513;-72
2021/07/23 09:57:50;;;;;;;6.35;1.48;;;;;;;21.82;100.00;100141.72;5033825;28;20402;-73
2021/07/23 10:00:56;;;;;;;9.00;2.50;;;;;;;22.04;100.00;100137.69;5033575;28;20064;-72
2021/07/23 10:04:08;;;;;;;8.95;1.92;;;;;;;22.07;100.00;100137.34;5033697;28;20064;-73
2021/07/23 10:07:19;;;;;;;6.70;1.67;;;;;;;22.26;100.00;100143.59;5033872;28;20060;-73
2021/07/23 10:10:23;;;;;;;6.65;1.45;;;;;;;22.16;100.00;100138.94;5033369;28;20048;-72
2021/07/23 10:13:29;;;;;;;7.47;1.65;;;;;;;22.23;100.00;100122.03;5033464;28;20113;-72
2021/07/23 10:16:34;;;;;;;7.40;1.63;;;;;;;22.25;100.00;100127.91;5023809;28;20069;-73
2021/07/23 10:19:37;;;;;;;7.68;1.67;;;;;;;22.11;100.00;100126.41;5012873;28;20069;-72
2021/07/23 10:22:42;;;;;;;5.13;1.05;;;;;;;22.15;100.00;100115.50;5013709;28;20053;-73
2021/07/23 10:25:51;;;;;;;6.60;1.70;;;;;;;22.44;100.00;100124.88;5013273;28;20068;-72
2021/07/23 10:28:57;;;;;;;4.22;1.08;;;;;;;22.71;100.00;100119.91;5013263;28;20399;-72
2021/07/23 10:32:01;;;;;;;8.48;2.55;;;;;;;23.13;100.00;100110.06;5012579;28;20056;-72
2021/07/23 10:35:16;;;;;;;11.45;2.10;;;;;;;23.15;100.00;100115.94;5013480;28;20057;-73
2021/07/23 10:38:20;;;;;;;9.32;2.65;;;;;;;23.19;100.00;100114.28;5013069;28;20042;-72
2021/07/23 10:41:24;;;;;;;6.07;1.05;;;;;;;23.28;100.00;100110.16;5013247;28;20065;-72
2021/07/23 10:44:27;;;;;;;4.38;1.20;;;;;;;23.29;100.00;100109.59;5013323;28;20049;-72
2021/07/23 10:47:35;;;;;;;6.40;1.92;;;;;;;23.41;100.00;100109.31;5013008;28;20057;-73
2021/07/23 10:50:39;;;;;;;6.20;1.25;;;;;;;23.37;100.00;100103.97;5023424;28;20049;-72
2021/07/23 10:53:42;;;;;;;10.48;1.80;;;;;;;23.21;100.00;100102.34;5012984;28;20057;-73
2021/07/23 10:57:00;;;;;;;7.25;2.13;;;;;;;22.92;100.00;100106.44;5023201;28;20042;-72
2021/07/23 11:00:05;;;;;;;6.05;1.60;;;;;;;22.71;100.00;100097.94;5015750;28;20072;-72
2021/07/23 11:03:08;;;;;;;7.97;2.00;;;;;;;22.35;100.00;100103.41;5015109;28;20049;-73
2021/07/23 11:06:18;;;;;;;7.47;1.15;;;;;;;22.13;100.00;100103.94;5013088;28;20053;-71
2021/07/23 11:09:21;;;;;;;10.37;1.77;;;;;;;21.98;100.00;100100.94;5013027;28;20524;-72
2021/07/23 11:12:33;;;;;;;6.68;1.70;;;;;;;21.78;100.00;100099.53;5012742;28;20275;-70
2021/07/23 11:15:37;;;;;;;6.55;1.92;;;;;;;21.68;100.00;100089.16;5031094;28;20060;-72
2021/07/23 11:18:51;;;;;;;8.05;2.05;;;;;;;21.71;100.00;100085.22;5031610;28;20056;-74
2021/07/23 11:21:54;;;;;;;10.27;1.63;;;;;;;21.89;100.00;100075.88;5032313;28;20048;-71
2021/07/23 11:25:05;;;;;;;11.15;1.90;;;;;;;22.11;100.00;100080.28;5032456;28;20057;-72
2021/07/23 11:28:09;;;;;;;11.82;1.88;;;;;;;22.13;100.00;100061.41;5032593;28;20406;-72
2021/07/23 11:31:29;;;;;;;13.68;1.75;;;;;;;22.21;100.00;100067.13;5023548;28;20041;-72
2021/07/23 11:34:38;;;;;;;8.45;2.10;;;;;;;22.16;100.00;100065.94;5012220;28;20399;-73
2021/07/23 11:37:42;;;;;;;5.53;1.40;;;;;;;22.20;100.00;100057.13;5012155;28;20061;-72
2021/07/23 11:40:45;;;;;;;10.35;1.55;;;;;;;22.19;100.00;100064.88;5012066;28;20061;-72
2021/07/23 11:44:07;;;;;;;13.10;2.22;;;;;;;22.11;100.00;100049.81;5012611;28;20042;-72
2021/07/23 11:47:10;;;;;;;10.27;2.05;;;;;;;22.05;100.00;100054.84;5012120;28;20046;-72
2021/07/23 11:50:22;;;;;;;9.32;2.13;;;;;;;22.11;100.00;100052.66;5012291;28;20050;-72
2021/07/23 11:53:26;;;;;;;9.70;2.40;;;;;;;22.02;100.00;100055.22;5012650;28;20510;-72
2021/07/23 11:56:32;;;;;;;6.70;2.30;;;;;;;22.00;100.00;100047.25;5012261;28;20053;-71
2021/07/23 11:59:36;;;;;;;9.48;2.65;;;;;;;22.12;100.00;100042.06;5015412;28;20057;-71
2021/07/23 12:02:40;;;;;;;7.10;2.20;;;;;;;22.10;100.00;100042.63;5014202;28;20044;-72
2021/07/23 12:05:43;;;;;;;9.50;2.70;;;;;;;22.04;100.00;100036.34;5012116;28;20048;-73
2021/07/23 12:08:52;;;;;;;12.38;2.20;;;;;;;21.95;100.00;100033.97;5017011;28;20397;-73
2021/07/23 12:11:56;;;;;;;10.48;2.28;;;;;;;21.88;100.00;100024.06;5029171;28;20053;-73
2021/07/23 12:15:11;;;;;;;15.38;2.85;;;;;;;21.91;100.00;100030.69;5035270;28;20405;-73
2021/07/23 12:18:19;;;;;;;12.55;3.25;;;;;;;21.73;100.00;100023.06;5035826;28;20046;-73
2021/07/23 12:21:27;;;;;;;9.00;3.72;;;;;;;21.60;100.00;100026.72;5035766;28;20394;-73
2021/07/23 12:24:31;;;;;;;11.05;2.90;;;;;;;21.48;100.00;100021.84;5035505;28;20068;-73
2021/07/23 12:27:34;;;;;;;9.25;3.45;;;;;;;21.44;100.00;100018.56;5035555;28;20465;-72
2021/07/23 12:30:38;;;;;;;14.50;3.85;;;;;;;21.35;100.00;100027.50;5035282;28;20052;-73
2021/07/23 12:33:42;;;;;;;14.07;3.17;;;;;;;21.26;100.00;100022.28;5034611;28;20049;-72
2021/07/23 12:36:52;;;;;;;10.38;2.90;;;;;;;21.13;100.00;100023.81;5035455;28;20049;-73
2021/07/23 12:40:05;;;;;;;6.85;1.77;;;;;;;20.92;100.00;100020.06;5035545;28;20053;-73
2021/07/23 12:43:11;;;;;;;12.57;3.47;;;;;;;20.84;100.00;100024.84;5035216;28;20065;-72
2021/07/23 12:46:28;;;;;;;11.07;2.65;;;;;;;20.91;100.00;100029.88;5035571;28;20045;-72
2021/07/23 12:49:39;;;;;;;10.35;3.10;;;;;;;20.98;100.00;100034.91;5035540;28;20053;-71
2021/07/23 12:52:52;;;;;;;13.75;2.70;;;;;;;21.04;100.00;100029.91;5035290;28;20049;-71
2021/07/23 12:55:57;;;;;;;21.15;3.90;;;;;;;21.09;100.00;100028.28;5035648;28;20045;-72
2021/07/23 12:59:01;;;;;;;8.25;3.03;;;;;;;21.11;100.00;100029.25;5034818;28;20053;-72
2021/07/23 13:02:04;;;;;;;11.90;3.20;;;;;;;21.16;100.00;100026.88;5034800;28;20052;-72
2021/07/23 13:05:08;;;;;;;8.57;3.08;;;;;;;21.27;100.00;100016.06;5034676;28;20398;-72
2021/07/23 13:08:12;;;;;;;12.98;3.40;;;;;;;21.48;100.00;100014.09;5035484;28;20052;-73
2021/07/23 13:11:18;;;;;;;15.70;2.67;;;;;;;21.66;100.00;100013.16;5035287;28;20045;-73
2021/07/23 13:14:22;;;;;;;14.63;3.38;;;;;;;21.79;100.00;100015.19;5034237;28;20478;-73
2021/07/23 13:17:26;;;;;;;10.50;3.42;;;;;;;21.87;100.00;99999.09;5034122;28;20410;-73
2021/07/23 13:20:29;;;;;;;7.60;2.83;;;;;;;22.01;100.00;99994.88;5034287;28;20072;-73
2021/07/23 13:23:33;;;;;;;15.30;3.70;;;;;;;22.27;100.00;99997.59;5034020;28;20060;-73
2021/07/23 13:26:37;;;;;;;12.50;2.75;;;;;;;22.41;100.00;99987.72;5034221;28;20052;-73
2021/07/23 13:29:41;;;;;;;7.97;1.73;;;;;;;22.26;100.00;99979.03;5034327;28;20053;-72
2021/07/23 13:32:46;;;;;;;7.70;2.72;;;;;;;22.40;100.00;99971.97;5033948;28;20052;-73
2021/07/23 13:36:07;;;;;;;7.55;1.67;;;;;;;22.43;100.00;99970.88;5034213;28;20064;-72
2021/07/23 13:39:17;;;;;;;10.07;2.85;;;;;;;22.29;100.00;99977.94;5034226;28;20405;-72
2021/07/23 13:42:25;;;;;;;7.18;1.63;;;;;;;21.99;100.00;99969.13;5034400;28;20056;-73
2021/07/23 13:45:33;;;;;;;5.32;1.65;;;;;;;21.84;100.00;99983.16;5034146;28;20064;-73
2021/07/23 13:48:36;;;;;;;11.50;2.50;;;;;;;21.64;100.00;99981.00;5033752;28;20052;-74
2021/07/23 13:51:40;;;;;;;8.20;1.98;;;;;;;21.43;100.00;99971.69;5033893;28;20053;-72
2021/07/23 13:54:43;;;;;;;10.43;1.95;;;;;;;21.31;100.00;99973.25;5034158;28;20056;-71
2021/07/23 13:57:47;;;;;;;13.05;2.97;;;;;;;21.22;100.00;99970.88;5033688;28;20049;-72
2021/07/23 14:00:51;;;;;;;8.73;1.52;;;;;;;21.13;100.00;99981.34;5033679;28;20072;-73
2021/07/23 14:03:54;;;;;;;13.68;2.10;;;;;;;21.01;100.00;99965.84;5033852;28;20048;-73
2021/07/23 14:07:03;;;;;;;8.85;2.30;;;;;;;20.72;100.00;99975.41;5033926;28;20167;-73